sensor_id;sensor_type;location;lat;lon;timestamp;pressure;altitude;pressure_sealevel;temperature;humidity
65614;BME280;52283;49.292;10.572;2023-07-13T00:00:34;96372.72;;;20.28;91.73
65614;BME280;52283;49.292;10.572;2023-07-13T00:03:01;96368.38;;;20.27;92.61
65614;BME280;52283;49.292;10.572;2023-07-13T00:05:28;96367.03;;;20.36;92.60
65614;BME280;52283;49.292;10.572;2023-07-13T00:07:54;96362.09;;;20.36;92.37
65614;BME280;52283;49.292;10.572;2023-07-13T00:10:22;96366.69;;;20.24;93.13
65614;BME280;52283;49.292;10.572;2023-07-13T00:12:49;96366.34;;;20.13;93.20
65614;BME280;52283;49.292;10.572;2023-07-13T00:15:19;96372.22;;;19.99;94.47
65614;BME280;52283;49.292;10.572;2023-07-13T00:17:48;96362.03;;;19.89;94.95
65614;BME280;52283;49.292;10.572;2023-07-13T00:20:15;96363.72;;;19.92;94.98
65614;BME280;52283;49.292;10.572;2023-07-13T00:22:41;96356.53;;;19.91;95.12
65614;BME280;52283;49.292;10.572;2023-07-13T00:25:10;96353.53;;;19.81;95.55
65614;BME280;52283;49.292;10.572;2023-07-13T00:27:38;96358.06;;;19.76;96.78
65614;BME280;52283;49.292;10.572;2023-07-13T00:30:06;96358.81;;;19.69;96.19
65614;BME280;52283;49.292;10.572;2023-07-13T00:32:34;96357.88;;;19.74;94.70
65614;BME280;52283;49.292;10.572;2023-07-13T00:35:01;96360.72;;;19.67;95.19
65614;BME280;52283;49.292;10.572;2023-07-13T00:37:28;96359.97;;;19.66;95.64
65614;BME280;52283;49.292;10.572;2023-07-13T00:39:55;96350.72;;;19.58;94.71
65614;BME280;52283;49.292;10.572;2023-07-13T00:42:22;96360.88;;;19.46;94.93
65614;BME280;52283;49.292;10.572;2023-07-13T00:46:11;96375.63;;;19.44;96.15
65614;BME280;52283;49.292;10.572;2023-07-13T00:47:56;96372.78;;;19.37;96.64
65614;BME280;52283;49.292;10.572;2023-07-13T00:50:23;96370.13;;;19.31;96.20
65614;BME280;52283;49.292;10.572;2023-07-13T00:52:53;96370.88;;;19.32;96.16
65614;BME280;52283;49.292;10.572;2023-07-13T00:55:23;96371.81;;;19.27;96.11
65614;BME280;52283;49.292;10.572;2023-07-13T00:57:50;96374.66;;;19.19;96.59
65614;BME280;52283;49.292;10.572;2023-07-13T01:00:20;96365.97;;;19.25;96.30
65614;BME280;52283;49.292;10.572;2023-07-13T01:02:48;96377.47;;;19.19;97.06
65614;BME280;52283;49.292;10.572;2023-07-13T01:05:18;96380.09;;;19.09;97.31
65614;BME280;52283;49.292;10.572;2023-07-13T01:07:45;96385.75;;;19.02;97.80
65614;BME280;52283;49.292;10.572;2023-07-13T01:10:14;96384.63;;;19.12;97.53
65614;BME280;52283;49.292;10.572;2023-07-13T01:12:40;96385.94;;;18.96;98.06
65614;BME280;52283;49.292;10.572;2023-07-13T01:15:37;96392.69;;;18.93;98.33
65614;BME280;52283;49.292;10.572;2023-07-13T01:18:04;96390.41;;;18.84;98.56
65614;BME280;52283;49.292;10.572;2023-07-13T01:20:31;96385.88;;;18.81;99.16
65614;BME280;52283;49.292;10.572;2023-07-13T01:23:03;96373.03;;;18.80;98.82
65614;BME280;52283;49.292;10.572;2023-07-13T01:25:32;96383.72;;;18.66;100.00
65614;BME280;52283;49.292;10.572;2023-07-13T01:27:58;96388.44;;;18.64;100.00
65614;BME280;52283;49.292;10.572;2023-07-13T01:30:25;96390.53;;;18.63;100.00
65614;BME280;52283;49.292;10.572;2023-07-13T01:32:51;96394.09;;;18.64;100.00
65614;BME280;52283;49.292;10.572;2023-07-13T01:35:18;96388.91;;;18.47;100.00
65614;BME280;52283;49.292;10.572;2023-07-13T01:37:44;96391.53;;;18.45;100.00
65614;BME280;52283;49.292;10.572;2023-07-13T01:40:12;96390.78;;;18.44;100.00
65614;BME280;52283;49.292;10.572;2023-07-13T01:42:39;96381.16;;;18.47;100.00
65614;BME280;52283;49.292;10.572;2023-07-13T01:45:07;96396.41;;;18.37;100.00
65614;BME280;52283;49.292;10.572;2023-07-13T01:47:33;96394.91;;;18.36;100.00
65614;BME280;52283;49.292;10.572;2023-07-13T01:50:00;96392.19;;;18.30;100.00
65614;BME280;52283;49.292;10.572;2023-07-13T01:52:26;96392.25;;;18.38;100.00
65614;BME280;52283;49.292;10.572;2023-07-13T01:54:52;96395.94;;;18.25;100.00
65614;BME280;52283;49.292;10.572;2023-07-13T01:57:20;96397.63;;;18.20;100.00
65614;BME280;52283;49.292;10.572;2023-07-13T01:59:47;96402.16;;;18.23;100.00
65614;BME280;52283;49.292;10.572;2023-07-13T02:02:13;96411.94;;;18.15;100.00
65614;BME280;52283;49.292;10.572;2023-07-13T02:04:40;96409.41;;;18.04;100.00
65614;BME280;52283;49.292;10.572;2023-07-13T02:07:07;96409.19;;;18.02;100.00
65614;BME280;52283;49.292;10.572;2023-07-13T02:09:34;96404.09;;;18.00;100.00
65614;BME280;52283;49.292;10.572;2023-07-13T02:12:01;96407.84;;;17.95;100.00
65614;BME280;52283;49.292;10.572;2023-07-13T02:14:29;96405.50;;;17.86;100.00
65614;BME280;52283;49.292;10.572;2023-07-13T02:16:54;96409.19;;;17.73;100.00
65614;BME280;52283;49.292;10.572;2023-07-13T02:19:21;96408.44;;;17.73;100.00
65614;BME280;52283;49.292;10.572;2023-07-13T02:21:47;96396.91;;;17.71;100.00
65614;BME280;52283;49.292;10.572;2023-07-13T02:24:14;96404.19;;;17.66;100.00
65614;BME280;52283;49.292;10.572;2023-07-13T02:26:42;96398.88;;;17.62;100.00
65614;BME280;52283;49.292;10.572;2023-07-13T02:29:09;96399.38;;;17.53;100.00
65614;BME280;52283;49.292;10.572;2023-07-13T02:31:37;96393.84;;;17.48;100.00
65614;BME280;52283;49.292;10.572;2023-07-13T02:34:04;96401.91;;;17.44;100.00
65614;BME280;52283;49.292;10.572;2023-07-13T02:36:31;96396.00;;;17.34;100.00
65614;BME280;52283;49.292;10.572;2023-07-13T02:38:57;96396.97;;;17.36;100.00
65614;BME280;52283;49.292;10.572;2023-07-13T02:41:24;96402.00;;;17.30;100.00
65614;BME280;52283;49.292;10.572;2023-07-13T02:43:50;96399.22;;;17.17;100.00
65614;BME280;52283;49.292;10.572;2023-07-13T02:46:17;96404.19;;;17.24;100.00
65614;BME280;52283;49.292;10.572;2023-07-13T02:48:46;96409.84;;;17.24;100.00
65614;BME280;52283;49.292;10.572;2023-07-13T02:51:12;96405.09;;;17.19;100.00
65614;BME280;52283;49.292;10.572;2023-07-13T02:53:39;96409.97;;;17.19;100.00
65614;BME280;52283;49.292;10.572;2023-07-13T02:56:05;96408.94;;;17.09;100.00
65614;BME280;52283;49.292;10.572;2023-07-13T02:58:32;96408.03;;;17.14;100.00
65614;BME280;52283;49.292;10.572;2023-07-13T03:01:06;96418.91;;;17.10;100.00
65614;BME280;52283;49.292;10.572;2023-07-13T03:03:33;96428.91;;;17.11;100.00
65614;BME280;52283;49.292;10.572;2023-07-13T03:06:03;96416.84;;;17.10;100.00
65614;BME280;52283;49.292;10.572;2023-07-13T03:08:30;96418.63;;;17.00;100.00
65614;BME280;52283;49.292;10.572;2023-07-13T03:11:00;96417.16;;;17.06;100.00
65614;BME280;52283;49.292;10.572;2023-07-13T03:13:27;96431.97;;;16.99;100.00
65614;BME280;52283;49.292;10.572;2023-07-13T03:15:53;96431.13;;;16.91;100.00
65614;BME280;52283;49.292;10.572;2023-07-13T03:18:19;96446.09;;;16.86;100.00
65614;BME280;52283;49.292;10.572;2023-07-13T03:20:46;96445.66;;;16.95;100.00
65614;BME280;52283;49.292;10.572;2023-07-13T03:23:14;96440.81;;;16.83;100.00
65614;BME280;52283;49.292;10.572;2023-07-13T03:25:40;96443.75;;;16.77;100.00
65614;BME280;52283;49.292;10.572;2023-07-13T03:28:07;96447.75;;;16.82;100.00
65614;BME280;52283;49.292;10.572;2023-07-13T03:30:33;96449.19;;;16.75;100.00
65614;BME280;52283;49.292;10.572;2023-07-13T03:33:00;96451.66;;;16.65;100.00
65614;BME280;52283;49.292;10.572;2023-07-13T03:35:26;96456.66;;;16.59;100.00
65614;BME280;52283;49.292;10.572;2023-07-13T03:37:52;96448.66;;;16.50;100.00
65614;BME280;52283;49.292;10.572;2023-07-13T03:40:20;96466.53;;;16.39;100.00
65614;BME280;52283;49.292;10.572;2023-07-13T03:42:47;96468.28;;;16.42;100.00
65614;BME280;52283;49.292;10.572;2023-07-13T03:45:13;96474.56;;;16.35;100.00
65614;BME280;52283;49.292;10.572;2023-07-13T03:47:40;96474.16;;;16.31;100.00
65614;BME280;52283;49.292;10.572;2023-07-13T03:50:07;96480.97;;;16.36;100.00
65614;BME280;52283;49.292;10.572;2023-07-13T03:52:34;96480.22;;;16.35;100.00
65614;BME280;52283;49.292;10.572;2023-07-13T03:55:00;96486.06;;;16.37;100.00
65614;BME280;52283;49.292;10.572;2023-07-13T03:57:28;96489.22;;;16.34;100.00
65614;BME280;52283;49.292;10.572;2023-07-13T03:59:54;96484.34;;;16.34;100.00
65614;BME280;52283;49.292;10.572;2023-07-13T04:02:21;96487.69;;;16.33;100.00
65614;BME280;52283;49.292;10.572;2023-07-13T04:04:47;96488.03;;;16.29;100.00
65614;BME280;52283;49.292;10.572;2023-07-13T04:07:14;96491.59;;;16.30;100.00
65614;BME280;52283;49.292;10.572;2023-07-13T04:09:40;96485.53;;;16.26;100.00
65614;BME280;52283;49.292;10.572;2023-07-13T04:12:07;96481.84;;;16.31;100.00
65614;BME280;52283;49.292;10.572;2023-07-13T04:14:36;96489.00;;;16.32;100.00
65614;BME280;52283;49.292;10.572;2023-07-13T04:17:04;96484.88;;;16.33;100.00
65614;BME280;52283;49.292;10.572;2023-07-13T04:19:31;96488.78;;;16.30;100.00
65614;BME280;52283;49.292;10.572;2023-07-13T04:21:57;96490.63;;;16.27;100.00
65614;BME280;52283;49.292;10.572;2023-07-13T04:24:23;96486.84;;;16.25;100.00
65614;BME280;52283;49.292;10.572;2023-07-13T04:26:50;96489.34;;;16.28;100.00
65614;BME280;52283;49.292;10.572;2023-07-13T04:29:16;96479.03;;;16.31;100.00
65614;BME280;52283;49.292;10.572;2023-07-13T04:31:44;96492.59;;;16.32;100.00
65614;BME280;52283;49.292;10.572;2023-07-13T04:34:11;96498.09;;;16.38;100.00
65614;BME280;52283;49.292;10.572;2023-07-13T04:36:37;96494.41;;;16.43;100.00
65614;BME280;52283;49.292;10.572;2023-07-13T04:39:04;96495.72;;;16.42;100.00
65614;BME280;52283;49.292;10.572;2023-07-13T04:41:30;96500.63;;;16.55;100.00
65614;BME280;52283;49.292;10.572;2023-07-13T04:43:57;96497.91;;;16.49;100.00
65614;BME280;52283;49.292;10.572;2023-07-13T04:46:23;96495.41;;;16.59;100.00
65614;BME280;52283;49.292;10.572;2023-07-13T04:48:51;96497.66;;;16.60;100.00
65614;BME280;52283;49.292;10.572;2023-07-13T04:51:18;96499.41;;;16.63;99.99
65614;BME280;52283;49.292;10.572;2023-07-13T04:53:45;96492.94;;;16.68;99.85
65614;BME280;52283;49.292;10.572;2023-07-13T04:56:11;96498.66;;;16.76;98.96
65614;BME280;52283;49.292;10.572;2023-07-13T04:58:38;96506.16;;;16.73;99.38
65614;BME280;52283;49.292;10.572;2023-07-13T05:01:05;96505.06;;;16.90;98.63
65614;BME280;52283;49.292;10.572;2023-07-13T05:03:34;96517.00;;;16.96;98.30
65614;BME280;52283;49.292;10.572;2023-07-13T05:06:04;96508.84;;;16.92;96.83
65614;BME280;52283;49.292;10.572;2023-07-13T05:08:31;96513.28;;;17.14;95.01
65614;BME280;52283;49.292;10.572;2023-07-13T05:10:59;96512.25;;;17.25;93.76
65614;BME280;52283;49.292;10.572;2023-07-13T05:13:26;96506.38;;;17.36;92.18
65614;BME280;52283;49.292;10.572;2023-07-13T05:15:56;96503.81;;;17.46;90.62
65614;BME280;52283;49.292;10.572;2023-07-13T05:18:23;96507.72;;;17.56;87.60
65614;BME280;52283;49.292;10.572;2023-07-13T05:20:59;96508.41;;;17.70;86.79
65614;BME280;52283;49.292;10.572;2023-07-13T05:23:29;96513.13;;;17.88;86.70
65614;BME280;52283;49.292;10.572;2023-07-13T05:25:56;96516.03;;;17.95;85.21
65614;BME280;52283;49.292;10.572;2023-07-13T05:28:22;96506.84;;;18.03;84.08
65614;BME280;52283;49.292;10.572;2023-07-13T05:30:49;96517.47;;;17.89;82.28
65614;BME280;52283;49.292;10.572;2023-07-13T05:33:16;96526.28;;;17.85;82.16
65614;BME280;52283;49.292;10.572;2023-07-13T05:35:43;96521.47;;;17.93;81.68
65614;BME280;52283;49.292;10.572;2023-07-13T05:38:09;96513.97;;;17.96;81.32
65614;BME280;52283;49.292;10.572;2023-07-13T05:40:37;96521.28;;;17.91;81.22
65614;BME280;52283;49.292;10.572;2023-07-13T05:43:04;96522.25;;;17.94;81.64
65614;BME280;52283;49.292;10.572;2023-07-13T05:45:30;96525.53;;;17.85;82.86
65614;BME280;52283;49.292;10.572;2023-07-13T05:47:57;96529.06;;;17.98;82.34
65614;BME280;52283;49.292;10.572;2023-07-13T05:50:23;96531.81;;;17.91;82.26
65614;BME280;52283;49.292;10.572;2023-07-13T05:52:50;96529.31;;;18.08;82.36
65614;BME280;52283;49.292;10.572;2023-07-13T05:55:17;96531.31;;;18.00;81.25
65614;BME280;52283;49.292;10.572;2023-07-13T05:57:45;96534.28;;;18.15;81.48
65614;BME280;52283;49.292;10.572;2023-07-13T06:00:13;96540.28;;;18.33;80.86
65614;BME280;52283;49.292;10.572;2023-07-13T06:02:39;96529.31;;;18.57;79.15
65614;BME280;52283;49.292;10.572;2023-07-13T06:05:06;96529.09;;;18.27;79.22
65614;BME280;52283;49.292;10.572;2023-07-13T06:07:33;96537.53;;;18.48;78.28
65614;BME280;52283;49.292;10.572;2023-07-13T06:09:59;96535.34;;;18.54;78.50
65614;BME280;52283;49.292;10.572;2023-07-13T06:12:26;96541.13;;;18.69;77.46
65614;BME280;52283;49.292;10.572;2023-07-13T06:14:53;96536.81;;;18.26;77.26
65614;BME280;52283;49.292;10.572;2023-07-13T06:17:20;96531.69;;;18.46;76.50
65614;BME280;52283;49.292;10.572;2023-07-13T06:19:46;96537.69;;;18.63;76.08
65614;BME280;52283;49.292;10.572;2023-07-13T06:22:13;96535.38;;;18.62;76.08
65614;BME280;52283;49.292;10.572;2023-07-13T06:24:39;96535.28;;;18.46;75.34
65614;BME280;52283;49.292;10.572;2023-07-13T06:27:06;96536.75;;;18.68;74.39
65614;BME280;52283;49.292;10.572;2023-07-13T06:29:32;96539.41;;;18.66;73.63
65614;BME280;52283;49.292;10.572;2023-07-13T06:32:00;96541.75;;;18.75;72.77
65614;BME280;52283;49.292;10.572;2023-07-13T06:34:27;96536.06;;;18.75;70.98
65614;BME280;52283;49.292;10.572;2023-07-13T06:36:54;96541.47;;;18.66;69.86
65614;BME280;52283;49.292;10.572;2023-07-13T06:39:20;96545.75;;;18.59;68.27
65614;BME280;52283;49.292;10.572;2023-07-13T06:41:47;96544.38;;;18.52;68.20
65614;BME280;52283;49.292;10.572;2023-07-13T06:44:13;96535.38;;;18.90;66.52
65614;BME280;52283;49.292;10.572;2023-07-13T06:46:40;96537.50;;;18.97;65.87
65614;BME280;52283;49.292;10.572;2023-07-13T06:49:08;96540.97;;;19.11;65.02
65614;BME280;52283;49.292;10.572;2023-07-13T06:51:35;96540.47;;;19.28;64.15
65614;BME280;52283;49.292;10.572;2023-07-13T06:54:02;96550.66;;;18.87;64.59
65614;BME280;52283;49.292;10.572;2023-07-13T06:56:28;96549.31;;;18.80;64.02
65614;BME280;52283;49.292;10.572;2023-07-13T06:58:55;96554.16;;;19.08;63.83
65614;BME280;52283;49.292;10.572;2023-07-13T07:01:21;96549.25;;;19.01;63.85
65614;BME280;52283;49.292;10.572;2023-07-13T07:03:48;96545.66;;;18.72;64.66
65614;BME280;52283;49.292;10.572;2023-07-13T07:06:18;96551.03;;;18.83;63.98
65614;BME280;52283;49.292;10.572;2023-07-13T07:08:45;96551.47;;;18.95;63.95
65614;BME280;52283;49.292;10.572;2023-07-13T07:11:13;96565.41;;;18.93;64.51
65614;BME280;52283;49.292;10.572;2023-07-13T07:13:40;96563.56;;;18.96;64.72
65614;BME280;52283;49.292;10.572;2023-07-13T07:16:07;96567.19;;;19.04;65.03
65614;BME280;52283;49.292;10.572;2023-07-13T07:18:33;96568.88;;;18.99;65.14
65614;BME280;52283;49.292;10.572;2023-07-13T07:21:00;96566.22;;;19.01;65.25
65614;BME280;52283;49.292;10.572;2023-07-13T07:23:28;96565.25;;;19.35;64.08
65614;BME280;52283;49.292;10.572;2023-07-13T07:25:55;96561.00;;;19.57;63.54
65614;BME280;52283;49.292;10.572;2023-07-13T07:28:21;96554.69;;;20.02;62.37
65614;BME280;52283;49.292;10.572;2023-07-13T07:30:48;96566.44;;;19.47;62.49
65614;BME280;52283;49.292;10.572;2023-07-13T07:33:15;96567.91;;;19.84;62.46
65614;BME280;52283;49.292;10.572;2023-07-13T07:35:42;96555.66;;;20.04;60.99
65614;BME280;52283;49.292;10.572;2023-07-13T07:38:09;96556.22;;;20.03;60.10
65614;BME280;52283;49.292;10.572;2023-07-13T07:40:38;96553.56;;;20.13;58.74
65614;BME280;52283;49.292;10.572;2023-07-13T07:43:05;96553.94;;;20.01;60.31
65614;BME280;52283;49.292;10.572;2023-07-13T07:45:32;96555.06;;;20.14;59.76
65614;BME280;52283;49.292;10.572;2023-07-13T07:47:58;96553.19;;;20.39;58.24
65614;BME280;52283;49.292;10.572;2023-07-13T07:50:25;96557.31;;;21.07;57.51
65614;BME280;52283;49.292;10.572;2023-07-13T07:52:52;96550.38;;;21.40;56.03
65614;BME280;52283;49.292;10.572;2023-07-13T07:55:18;96545.22;;;21.54;55.45
65614;BME280;52283;49.292;10.572;2023-07-13T07:57:46;96550.41;;;21.73;54.69
65614;BME280;52283;49.292;10.572;2023-07-13T08:00:14;96554.78;;;22.06;53.31
65614;BME280;52283;49.292;10.572;2023-07-13T08:02:41;96548.97;;;22.46;52.23
65614;BME280;52283;49.292;10.572;2023-07-13T08:05:08;96553.09;;;21.71;51.66
65614;BME280;52283;49.292;10.572;2023-07-13T08:07:34;96564.75;;;21.42;53.57
65614;BME280;52283;49.292;10.572;2023-07-13T08:10:01;96561.34;;;21.84;51.70
65614;BME280;52283;49.292;10.572;2023-07-13T08:12:27;96529.25;;;21.58;48.38
65614;BME280;52283;49.292;10.572;2023-07-13T08:14:55;96555.13;;;21.38;48.96
65614;BME280;52283;49.292;10.572;2023-07-13T08:17:23;96549.97;;;21.44;50.12
65614;BME280;52283;49.292;10.572;2023-07-13T08:19:50;96560.28;;;21.72;50.52
65614;BME280;52283;49.292;10.572;2023-07-13T08:22:16;96548.06;;;21.86;49.90
65614;BME280;52283;49.292;10.572;2023-07-13T08:24:43;96553.13;;;21.96;49.18
65614;BME280;52283;49.292;10.572;2023-07-13T08:27:10;96545.88;;;21.70;47.44
65614;BME280;52283;49.292;10.572;2023-07-13T08:29:37;96546.25;;;22.06;45.46
65614;BME280;52283;49.292;10.572;2023-07-13T08:32:07;96557.38;;;21.87;47.09
65614;BME280;52283;49.292;10.572;2023-07-13T08:34:34;96566.75;;;22.05;47.10
65614;BME280;52283;49.292;10.572;2023-07-13T08:37:01;96572.66;;;21.59;47.22
65614;BME280;52283;49.292;10.572;2023-07-13T08:39:29;96569.97;;;22.01;45.87
65614;BME280;52283;49.292;10.572;2023-07-13T08:42:01;96555.53;;;22.07;44.06
65614;BME280;52283;49.292;10.572;2023-07-13T08:44:40;96553.75;;;21.86;44.35
65614;BME280;52283;49.292;10.572;2023-07-13T08:47:14;96561.09;;;21.97;44.29
65614;BME280;52283;49.292;10.572;2023-07-13T08:49:42;96560.09;;;22.10;43.81
65614;BME280;52283;49.292;10.572;2023-07-13T08:52:14;96571.59;;;21.87;44.99
65614;BME280;52283;49.292;10.572;2023-07-13T08:54:47;96564.78;;;22.15;44.83
65614;BME280;52283;49.292;10.572;2023-07-13T08:57:19;96563.38;;;22.48;44.40
65614;BME280;52283;49.292;10.572;2023-07-13T08:59:46;96565.66;;;22.25;44.10
65614;BME280;52283;49.292;10.572;2023-07-13T09:02:22;96570.72;;;22.09;44.19
65614;BME280;52283;49.292;10.572;2023-07-13T09:04:55;96574.75;;;22.31;43.71
65614;BME280;52283;49.292;10.572;2023-07-13T09:07:30;96567.94;;;22.94;42.34
65614;BME280;52283;49.292;10.572;2023-07-13T09:10:05;96563.09;;;22.62;42.40
65614;BME280;52283;49.292;10.572;2023-07-13T09:12:45;96556.47;;;23.19;41.79
65614;BME280;52283;49.292;10.572;2023-07-13T09:15:26;96555.03;;;23.45;40.31
65614;BME280;52283;49.292;10.572;2023-07-13T09:18:02;96551.53;;;23.02;41.30
65614;BME280;52283;49.292;10.572;2023-07-13T09:20:34;96569.53;;;22.87;41.98
65614;BME280;52283;49.292;10.572;2023-07-13T09:23:05;96557.06;;;23.17;40.31
65614;BME280;52283;49.292;10.572;2023-07-13T09:25:35;96550.41;;;23.66;39.80
65614;BME280;52283;49.292;10.572;2023-07-13T09:28:05;96571.38;;;23.09;40.83
65614;BME280;52283;49.292;10.572;2023-07-13T09:30:46;96570.47;;;23.07;40.30
65614;BME280;52283;49.292;10.572;2023-07-13T09:33:18;96561.50;;;23.28;40.26
65614;BME280;52283;49.292;10.572;2023-07-13T09:35:44;96564.69;;;22.97;41.08
65614;BME280;52283;49.292;10.572;2023-07-13T09:38:13;96556.19;;;23.41;40.04
65614;BME280;52283;49.292;10.572;2023-07-13T09:40:53;96551.41;;;23.44;40.15
65614;BME280;52283;49.292;10.572;2023-07-13T09:43:24;96555.19;;;23.29;40.01
65614;BME280;52283;49.292;10.572;2023-07-13T09:45:51;96557.22;;;23.36;40.20
65614;BME280;52283;49.292;10.572;2023-07-13T09:48:19;96562.66;;;23.25;39.71
65614;BME280;52283;49.292;10.572;2023-07-13T09:50:46;96556.78;;;23.40;39.40
65614;BME280;52283;49.292;10.572;2023-07-13T09:53:14;96560.50;;;23.33;39.22
65614;BME280;52283;49.292;10.572;2023-07-13T09:55:42;96551.53;;;23.81;36.72
65614;BME280;52283;49.292;10.572;2023-07-13T09:58:12;96543.03;;;23.29;37.85
65614;BME280;52283;49.292;10.572;2023-07-13T10:00:40;96546.38;;;23.52;38.44
65614;BME280;52283;49.292;10.572;2023-07-13T10:03:16;96550.09;;;24.16;38.60
65614;BME280;52283;49.292;10.572;2023-07-13T10:05:46;96554.88;;;24.14;38.23
65614;BME280;52283;49.292;10.572;2023-07-13T10:08:18;96550.25;;;24.18;38.42
65614;BME280;52283;49.292;10.572;2023-07-13T10:10:45;96562.69;;;24.40;38.04
65614;BME280;52283;49.292;10.572;2023-07-13T10:13:31;96567.91;;;22.76;39.69
65614;BME280;52283;49.292;10.572;2023-07-13T10:16:00;96563.38;;;22.73;40.45
65614;BME280;52283;49.292;10.572;2023-07-13T10:18:28;96572.81;;;22.34;40.67
65614;BME280;52283;49.292;10.572;2023-07-13T10:21:10;96577.28;;;22.44;41.20
65614;BME280;52283;49.292;10.572;2023-07-13T10:23:37;96562.94;;;23.36;40.37
65614;BME280;52283;49.292;10.572;2023-07-13T10:26:05;96562.09;;;23.88;39.24
65614;BME280;52283;49.292;10.572;2023-07-13T10:28:38;96574.31;;;23.02;39.73
65614;BME280;52283;49.292;10.572;2023-07-13T10:31:11;96567.28;;;23.03;39.55
65614;BME280;52283;49.292;10.572;2023-07-13T10:33:38;96568.69;;;23.63;39.23
65614;BME280;52283;49.292;10.572;2023-07-13T10:36:23;96551.41;;;24.42;37.90
65614;BME280;52283;49.292;10.572;2023-07-13T10:38:55;96563.44;;;24.14;37.80
65614;BME280;52283;49.292;10.572;2023-07-13T10:41:24;96566.28;;;24.14;37.50
65614;BME280;52283;49.292;10.572;2023-07-13T10:43:53;96582.78;;;23.27;39.84
65614;BME280;52283;49.292;10.572;2023-07-13T10:46:24;96573.75;;;23.99;39.63
65614;BME280;52283;49.292;10.572;2023-07-13T10:48:54;96567.63;;;23.86;39.01
65614;BME280;52283;49.292;10.572;2023-07-13T10:51:22;96565.81;;;24.35;38.69
65614;BME280;52283;49.292;10.572;2023-07-13T10:54:11;96562.38;;;24.92;37.70
65614;BME280;52283;49.292;10.572;2023-07-13T10:56:42;96562.00;;;23.95;38.90
65614;BME280;52283;49.292;10.572;2023-07-13T10:59:12;96553.69;;;24.44;37.78
65614;BME280;52283;49.292;10.572;2023-07-13T11:01:48;96574.59;;;23.92;38.88
65614;BME280;52283;49.292;10.572;2023-07-13T11:04:18;96564.59;;;23.74;41.18
65614;BME280;52283;49.292;10.572;2023-07-13T11:06:50;96551.16;;;23.67;38.17
65614;BME280;52283;49.292;10.572;2023-07-13T11:09:31;96539.69;;;24.38;37.43
65614;BME280;52283;49.292;10.572;2023-07-13T11:11:59;96546.03;;;24.19;37.88
65614;BME280;52283;49.292;10.572;2023-07-13T11:14:28;96549.06;;;24.21;37.64
65614;BME280;52283;49.292;10.572;2023-07-13T11:16:55;96537.66;;;24.68;36.66
65614;BME280;52283;49.292;10.572;2023-07-13T11:22:42;96514.59;;;24.37;35.69
65614;BME280;52283;49.292;10.572;2023-07-13T11:25:27;96510.59;;;24.69;34.35
65614;BME280;52283;49.292;10.572;2023-07-13T11:28:11;96533.59;;;24.24;36.03
65614;BME280;52283;49.292;10.572;2023-07-13T11:30:41;96539.34;;;23.53;36.54
65614;BME280;52283;49.292;10.572;2023-07-13T11:33:15;96529.28;;;24.33;36.86
65614;BME280;52283;49.292;10.572;2023-07-13T11:35:53;96534.25;;;24.06;36.60
65614;BME280;52283;49.292;10.572;2023-07-13T11:38:32;96527.81;;;24.15;37.13
65614;BME280;52283;49.292;10.572;2023-07-13T11:41:01;96542.03;;;23.95;37.75
65614;BME280;52283;49.292;10.572;2023-07-13T11:43:29;96542.28;;;23.90;37.99
65614;BME280;52283;49.292;10.572;2023-07-13T11:45:56;96540.66;;;23.69;38.11
65614;BME280;52283;49.292;10.572;2023-07-13T11:48:26;96534.84;;;24.04;37.20
65614;BME280;52283;49.292;10.572;2023-07-13T11:50:58;96533.53;;;25.07;36.04
65614;BME280;52283;49.292;10.572;2023-07-13T11:53:28;96530.31;;;24.93;36.33
65614;BME280;52283;49.292;10.572;2023-07-13T11:55:56;96539.19;;;24.32;36.82
65614;BME280;52283;49.292;10.572;2023-07-13T11:58:25;96535.19;;;24.45;37.14
65614;BME280;52283;49.292;10.572;2023-07-13T12:00:55;96536.94;;;24.03;37.29
65614;BME280;52283;49.292;10.572;2023-07-13T12:03:24;96546.16;;;23.58;37.73
65614;BME280;52283;49.292;10.572;2023-07-13T12:05:59;96554.72;;;23.58;37.59
65614;BME280;52283;49.292;10.572;2023-07-13T12:08:26;96541.56;;;23.72;37.71
65614;BME280;52283;49.292;10.572;2023-07-13T12:11:00;96532.63;;;24.12;37.45
65614;BME280;52283;49.292;10.572;2023-07-13T12:13:35;96541.31;;;24.05;38.68
65614;BME280;52283;49.292;10.572;2023-07-13T12:16:10;96534.78;;;24.58;37.69
65614;BME280;52283;49.292;10.572;2023-07-13T12:18:37;96541.84;;;23.93;38.60
65614;BME280;52283;49.292;10.572;2023-07-13T12:21:05;96554.44;;;23.63;39.46
65614;BME280;52283;49.292;10.572;2023-07-13T12:23:33;96536.03;;;24.93;36.81
65614;BME280;52283;49.292;10.572;2023-07-13T12:26:04;96545.91;;;24.27;37.36
65614;BME280;52283;49.292;10.572;2023-07-13T12:28:32;96557.94;;;24.25;37.03
65614;BME280;52283;49.292;10.572;2023-07-13T12:31:00;96540.50;;;24.68;37.32
65614;BME280;52283;49.292;10.572;2023-07-13T12:33:28;96537.59;;;25.52;35.98
65614;BME280;52283;49.292;10.572;2023-07-13T12:35:55;96548.28;;;25.33;36.75
65614;BME280;52283;49.292;10.572;2023-07-13T12:38:24;96544.97;;;24.42;38.47
65614;BME280;52283;49.292;10.572;2023-07-13T12:40:52;96550.97;;;24.46;37.81
65614;BME280;52283;49.292;10.572;2023-07-13T12:43:22;96543.31;;;25.33;36.84
65614;BME280;52283;49.292;10.572;2023-07-13T12:45:56;96538.63;;;25.38;37.37
65614;BME280;52283;49.292;10.572;2023-07-13T12:48:23;96526.66;;;25.99;37.08
65614;BME280;52283;49.292;10.572;2023-07-13T12:50:50;96531.75;;;25.21;36.19
65614;BME280;52283;49.292;10.572;2023-07-13T12:53:20;96545.84;;;25.58;35.59
65614;BME280;52283;49.292;10.572;2023-07-13T12:55:50;96534.75;;;25.04;35.59
65614;BME280;52283;49.292;10.572;2023-07-13T12:58:20;96532.28;;;24.81;35.71